AirNav   Air Wisconsin Up To $57,000 Bonus
 
 322 users online  

60TA Air Ranch Estates Airport
Waxahachie, Texas, USA

GOING TO WAXAHACHIE?


FAA INFORMATION EFFECTIVE 15 AUGUST 2019

Location

FAA Identifier: 60TA
Lat/Long: 32-19-30.5100N 096-56-51.0000W
32-19.508500N 096-56.850000W
32.3251417,-96.9475000
(estimated)
Elevation: 670 ft. / 204 m (estimated)
Variation: 05E (2000)
From city: 5 miles SW of WAXAHACHIE, TX
Time zone: UTC -5 (UTC -6 during Standard Time)
Zip code: 75167

Airport Operations

Airport use: Private use. Permission required prior to landing
Activation date: 02/2002
Control tower: no
ARTCC: FORT WORTH CENTER
FSS: FORT WORTH FLIGHT SERVICE STATION
Attendance: UNATNDD
Segmented circle: no

Airport Communications

UNICOM: 122.975
WX AWOS-3 at JWY (8 nm N): 119.575 (972-937-4747)
WX AWOS-3 at INJ (16 nm SW): 118.725 (254-582-0063)
WX AWOS-3 at LNC (19 nm NE): 118.975 (972-227-0471)

Nearby radio navigation aids

VOR radial/distance  VOR name  Freq  Var
TTTr166/33.0MAVERICK VOR/DME113.1006E
CVEr178/34.0COWBOY VOR/DME116.2006E
FUZr155/35.8RANGER VORTAC115.7006E
CQYr277/37.9CEDAR CREEK VORTAC114.8006E

 
NDB name  Hdg/Dist  Freq  Var  ID
POWELL295/30.834406ECGQ -.-. --. --.-
CORSICANA296/33.239606ECRS -.-. .-. ...
MESQUITE213/35.924803EPQF .--. --.- ..-.

Airport Services

Runway Information

Runway 16/34

Dimensions: 3800 x 40 ft. / 1158 x 12 m
Surface: asphalt/concrete
RUNWAY 16  RUNWAY 34
Traffic pattern: leftright

Airport Ownership and Management from official FAA records

Ownership: Privately-owned
Owner: ALYSA DEVELOPMENT CORP
109 CANYON COVE
MABANK, TX 75147
Phone 903-451-2855
Manager: JACK F. ATKINS
109 CANYON COVE
MABANK, TX 75147
Phone 903-451-2855

Additional Remarks

FOR CD CTC REGIONAL APCH AT 972-615-2799.

Instrument Procedures

There are no published instrument procedures at 60TA.

Some nearby airports with instrument procedures:

KJWY - Mid-Way Regional Airport (8 nm N)
F41 - Ennis Municipal Airport (14 nm E)
KINJ - Hillsboro Municipal Airport (16 nm SW)
KLNC - Lancaster Regional Airport (19 nm NE)
KGKY - Arlington Municipal Airport (22 nm N)
 
Loc | Ops | Rwys | IFR | FBO | Links
Com | Nav | Svcs | Stats | Notes
Area around 60TA (Air Ranch Estates Airport)
 
Road maps at: MapQuest Bing Google
 
Aerial photo
No photo
 
Sectional chart

 
Airport distance calculator
Flying to Air Ranch Estates Airport? Find the distance to fly.

From to 60TA

Sunrise and sunset
Times for 19-Aug-2019
 Local
(UTC-5)
 Zulu
(UTC)
Morning civil twilight06:3011:30
Sunrise06:5511:55
Sunset20:0701:07
Evening civil twilight20:3301:33

Current date and time
Zulu (UTC)  19-Aug-2019 06:50:30
Local (UTC-5)  19-Aug-2019 01:50:30
 
METAR
KJWY 
8nm N 
190640Z AUTO 16005KT 10SM CLR 29/22 A2993 RMK AO2 T02850222
KINJ 
16nm SW 
190635Z AUTO 16011KT 10SM CLR 30/23 A2992 RMK AO2 T03010226
KLNC 
19nm NE 
190635Z AUTO 16005KT 10SM CLR 28/22 A2992 RMK AO2 T02810216
TAF
KGKY 
22nm N 
190520Z 1906/2006 16011KT P6SM FEW050 FEW250
NOTAMs
Click for the latest NOTAMs
NOTAMs are issued by the DoD/FAA and will open in a separate window not controlled by AirNav.

 

 
 

Would you like to see your business listed on this page?

 If your business provides an interesting product or service to pilots, flight crews, aircraft, or users of the Air Ranch Estates Airport, you should consider listing it here.  To start the listing process, click on the button below
 
Add a business
 

Other Pages about Air Ranch Estates Airport

Update a link
 
Copyright © AirNav, LLC. All rights reserved. Privacy Policy  Contact